Overview Statistics Trail Chart Weather Telemetry Raw packets
 

This is the latest recevied weather packets stored in our database for station/object HP3ICC-22. If no packets are shown the sender has not sent any weather packets the latest 10 day(s).

<< 30 31 32 33 34 35 36 >>
Time Temp. Humidity Pressure Rain* Wind** Luminosity Snow
1777262304 9.44° C 88% 1015 hPa 0 mm - - -
1777262244 9.44° C 88% 1015 hPa 0 mm - - -
1777261104 10° C 74% 1015 hPa 0 mm - - -
1777261045 10° C 74% 1015 hPa 0 mm - - -
1777259903 9.44° C 83% 1013 hPa 0 mm - - -
1777259843 9.44° C 83% 1013 hPa 0 mm - - -
1777258703 9.44° C 77% 1015 hPa 0 mm - - -
1777258642 9.44° C 77% 1015 hPa 0 mm - - -
1777257502 10.56° C 74% 1014 hPa 0 mm - - -
1777257442 10.56° C 74% 1014 hPa 0 mm - - -
1777256301 9.44° C 79% 1013 hPa 0 mm - - -
1777256241 9.44° C 79% 1013 hPa 0 mm - - -
1777255101 10° C 79% 1014 hPa 0.25 mm - - -
1777255041 10° C 79% 1014 hPa 0.25 mm - - -
1777253900 10° C 76% 1014 hPa 0 mm - - -
1777253840 10° C 76% 1014 hPa 0 mm - - -
1777252700 11.11° C 74% 1012 hPa 0 mm - - -
1777252640 11.11° C 74% 1012 hPa 0 mm - - -
1777251500 10° C 77% 1013 hPa 0 mm - - -
1777251439 10° C 77% 1013 hPa 0 mm - - -
1777250299 10.56° C 77% 1013 hPa 0 mm - - -
1777250239 10.56° C 77% 1013 hPa 0 mm - - -
1777249099 10° C 77% 1011 hPa 0 mm - - -
1777249039 10° C 77% 1011 hPa 0 mm - - -
1777247898 11.11° C 77% 1012 hPa 0.25 mm - - -

* Rain latest hour (hover to see other rain measurements)
** Current wind speed in m/s (hover to see current wind gust speed)